createdAt,value
2018-11-12T00:00:36.679Z,11.40
2018-11-12T00:02:41.168Z,11.50
2018-11-12T00:04:45.477Z,11.40
2018-11-12T00:06:49.925Z,11.50
2018-11-12T00:08:54.150Z,11.40
2018-11-12T00:10:58.446Z,11.50
2018-11-12T00:13:02.770Z,11.50
2018-11-12T00:15:08.159Z,11.40
2018-11-12T00:17:12.665Z,11.40
2018-11-12T00:19:16.914Z,11.40
2018-11-12T00:21:23.405Z,11.40
2018-11-12T00:23:27.840Z,11.40
2018-11-12T00:25:32.362Z,11.40
2018-11-12T00:27:37.064Z,11.40
2018-11-12T00:29:41.548Z,11.40
2018-11-12T00:31:45.895Z,11.40
2018-11-12T00:33:50.331Z,11.40
2018-11-12T00:35:54.725Z,11.40
2018-11-12T00:37:59.241Z,11.30
2018-11-12T00:40:04.049Z,11.30
2018-11-12T00:42:08.491Z,11.30
2018-11-12T00:44:12.906Z,11.30
2018-11-12T00:46:17.374Z,11.30
2018-11-12T00:48:21.773Z,11.30
2018-11-12T00:50:26.383Z,11.30
2018-11-12T00:52:30.991Z,11.30
2018-11-12T00:54:35.486Z,11.30
2018-11-12T00:56:40.066Z,11.30
2018-11-12T00:58:44.568Z,11.30
2018-11-12T01:00:48.985Z,11.30
2018-11-12T01:02:53.582Z,11.30
2018-11-12T01:04:58.113Z,11.30
2018-11-12T01:07:03.028Z,11.30
2018-11-12T01:09:09.699Z,11.30
2018-11-12T01:11:14.329Z,11.30
2018-11-12T01:13:18.811Z,11.30
2018-11-12T01:15:23.319Z,11.30
2018-11-12T01:17:27.810Z,11.30
2018-11-12T01:19:32.369Z,11.30
2018-11-12T01:21:36.888Z,11.30
2018-11-12T01:23:41.410Z,11.30
2018-11-12T01:25:45.860Z,11.30
2018-11-12T01:27:50.376Z,11.30
2018-11-12T01:29:54.883Z,11.20
2018-11-12T01:31:59.532Z,11.20
2018-11-12T01:34:04.136Z,11.30
2018-11-12T01:36:08.714Z,11.20
2018-11-12T01:38:13.264Z,11.20
2018-11-12T01:40:17.685Z,11.20
2018-11-12T01:42:22.229Z,11.20
2018-11-12T01:44:26.513Z,11.20
2018-11-12T01:46:31.042Z,11.20
2018-11-12T01:48:35.654Z,11.20
2018-11-12T01:50:40.200Z,11.20
2018-11-12T01:52:45.391Z,11.20
2018-11-12T01:54:49.828Z,11.20
2018-11-12T01:56:54.407Z,11.10
2018-11-12T01:58:59.041Z,11.20
2018-11-12T02:01:03.431Z,11.20
2018-11-12T02:03:07.950Z,11.10
2018-11-12T02:05:12.541Z,11.10
2018-11-12T02:07:17.085Z,11.10
2018-11-12T02:09:21.711Z,11.10
2018-11-12T02:11:26.189Z,11.10
2018-11-12T02:13:30.624Z,11.10
2018-11-12T02:15:36.166Z,11.10
2018-11-12T02:17:40.908Z,11.20
2018-11-12T02:19:45.610Z,11.20
2018-11-12T02:21:50.373Z,11.10
2018-11-12T02:23:54.862Z,11.20
2018-11-12T02:25:59.515Z,11.20
2018-11-12T02:28:04.091Z,11.10
2018-11-12T02:30:12.316Z,11.10
2018-11-12T02:32:16.863Z,11.20
2018-11-12T02:34:21.464Z,11.20
2018-11-12T02:36:26.008Z,11.20
2018-11-12T02:38:30.489Z,11.10
2018-11-12T02:40:35.220Z,11.10
2018-11-12T02:42:39.764Z,11.10
2018-11-12T02:44:44.163Z,11.10
2018-11-12T02:46:48.758Z,11.10
2018-11-12T02:48:53.400Z,11.20
2018-11-12T02:50:57.702Z,11.20
2018-11-12T02:53:02.218Z,11.20
2018-11-12T02:55:08.333Z,11.20
2018-11-12T02:57:12.942Z,11.20
2018-11-12T02:59:17.536Z,11.10
2018-11-12T03:01:23.358Z,11.10
2018-11-12T03:03:28.719Z,11.20
2018-11-12T03:05:33.253Z,11.20
2018-11-12T03:07:37.888Z,11.20
2018-11-12T03:09:42.283Z,11.20
2018-11-12T03:11:46.697Z,11.20
2018-11-12T03:13:51.325Z,11.20
2018-11-12T03:15:55.810Z,11.20
2018-11-12T03:18:00.364Z,11.20
2018-11-12T03:20:05.430Z,11.20
2018-11-12T03:22:09.831Z,11.20
2018-11-12T03:24:14.148Z,11.20
2018-11-12T03:26:18.640Z,11.20
2018-11-12T03:28:23.043Z,11.20
2018-11-12T03:30:27.681Z,11.20
2018-11-12T03:32:32.196Z,11.20
2018-11-12T03:34:36.729Z,11.20
2018-11-12T03:36:41.361Z,11.20
2018-11-12T03:38:45.723Z,11.20
2018-11-12T03:40:50.033Z,11.20
2018-11-12T03:42:54.574Z,11.20
2018-11-12T03:44:59.028Z,11.20
2018-11-12T03:47:03.419Z,11.20
2018-11-12T03:49:07.960Z,11.20
2018-11-12T03:51:12.469Z,11.10
2018-11-12T03:53:17.001Z,11.10
2018-11-12T03:55:22.351Z,11.00
2018-11-12T03:57:26.841Z,11.00
2018-11-12T03:59:31.679Z,11.10
2018-11-12T04:01:41.318Z,11.10
2018-11-12T04:03:45.836Z,11.10
2018-11-12T04:05:50.243Z,11.00
2018-11-12T04:07:55.055Z,11.10
2018-11-12T04:09:59.567Z,11.10
2018-11-12T04:12:03.994Z,11.10
2018-11-12T04:14:09.518Z,11.10
2018-11-12T04:16:14.257Z,11.10
2018-11-12T04:18:18.791Z,11.10
2018-11-12T04:20:24.194Z,11.10
2018-11-12T04:22:28.882Z,11.10
2018-11-12T04:24:33.478Z,11.10
2018-11-12T04:26:38.104Z,11.10
2018-11-12T04:28:42.749Z,11.10
2018-11-12T04:30:47.372Z,11.10
2018-11-12T04:32:52.798Z,11.10
2018-11-12T04:34:57.242Z,11.10
2018-11-12T04:37:01.535Z,11.10
2018-11-12T04:39:08.914Z,11.20
2018-11-12T04:41:13.535Z,11.10
2018-11-12T04:43:18.260Z,11.20
2018-11-12T04:45:23.871Z,11.10
2018-11-12T04:47:28.525Z,11.10
2018-11-12T04:49:33.239Z,11.10
2018-11-12T04:51:37.737Z,11.10
2018-11-12T04:53:43.299Z,11.10
2018-11-12T04:55:47.623Z,11.10
2018-11-12T04:57:52.177Z,11.10
2018-11-12T04:59:56.674Z,11.10
2018-11-12T05:02:01.161Z,11.10
2018-11-12T05:04:05.993Z,11.10
2018-11-12T05:06:12.917Z,11.20
2018-11-12T05:08:17.525Z,11.20
2018-11-12T05:10:23.018Z,11.10
2018-11-12T05:12:27.444Z,11.10
2018-11-12T05:14:32.104Z,11.10
2018-11-12T05:16:36.819Z,11.10
2018-11-12T05:18:41.449Z,11.10
2018-11-12T05:20:46.070Z,11.10
2018-11-12T05:22:50.638Z,11.10
2018-11-12T05:24:55.220Z,11.10
2018-11-12T05:26:59.583Z,11.10
2018-11-12T05:29:04.234Z,11.10
2018-11-12T05:31:09.001Z,11.10
2018-11-12T05:33:13.496Z,11.10
2018-11-12T05:35:20.209Z,11.10
2018-11-12T05:37:24.698Z,11.10
2018-11-12T05:39:29.295Z,11.20
2018-11-12T05:41:34.122Z,11.20
2018-11-12T05:43:38.645Z,11.20
2018-11-12T05:45:43.561Z,11.20
2018-11-12T05:47:48.184Z,11.20
2018-11-12T05:49:52.828Z,11.20
2018-11-12T05:51:57.335Z,11.10
2018-11-12T05:54:02.121Z,11.20
2018-11-12T05:56:07.760Z,11.20
2018-11-12T05:58:13.147Z,11.10
2018-11-12T06:00:19.463Z,11.10
2018-11-12T06:02:24.022Z,11.20
2018-11-12T06:04:28.654Z,11.10
2018-11-12T06:06:33.156Z,11.10
2018-11-12T06:08:37.700Z,11.10
2018-11-12T06:10:46.706Z,11.10
2018-11-12T06:12:51.264Z,11.10
2018-11-12T06:14:55.627Z,11.10
2018-11-12T06:16:59.917Z,11.10
2018-11-12T06:19:04.241Z,11.10
2018-11-12T06:21:08.677Z,11.10
2018-11-12T06:23:13.128Z,11.10
2018-11-12T06:25:18.989Z,11.10
2018-11-12T06:27:23.478Z,11.10
2018-11-12T06:29:28.093Z,11.10
2018-11-12T06:31:32.746Z,11.10
2018-11-12T06:33:37.205Z,11.10
2018-11-12T06:35:41.514Z,11.10
2018-11-12T06:37:46.665Z,11.10
2018-11-12T06:39:51.218Z,11.10
2018-11-12T06:41:55.615Z,11.10
2018-11-12T06:44:00.143Z,11.10
2018-11-12T06:46:04.805Z,11.10
2018-11-12T06:48:10.128Z,11.10
2018-11-12T06:50:16.648Z,11.10
2018-11-12T06:52:21.074Z,11.10
2018-11-12T06:54:25.340Z,11.10
2018-11-12T06:56:29.749Z,11.10
2018-11-12T06:58:34.212Z,11.10
2018-11-12T07:00:38.770Z,11.10
2018-11-12T07:02:43.394Z,11.10
2018-11-12T07:04:47.857Z,11.10
2018-11-12T07:06:52.118Z,11.10
2018-11-12T07:08:56.747Z,11.10
2018-11-12T07:11:02.411Z,11.10
2018-11-12T07:13:07.135Z,11.20
2018-11-12T07:15:13.347Z,11.20
2018-11-12T07:17:18.014Z,11.20
2018-11-12T07:19:22.551Z,11.10
2018-11-12T07:21:27.131Z,11.20
2018-11-12T07:23:39.079Z,11.10
2018-11-12T07:25:43.594Z,11.20
2018-11-12T07:27:49.148Z,11.20
2018-11-12T07:29:53.499Z,11.20
2018-11-12T07:31:58.016Z,11.10
2018-11-12T07:34:02.393Z,11.20
2018-11-12T07:36:07.165Z,11.20
2018-11-12T07:38:11.474Z,11.20
2018-11-12T07:40:16.344Z,11.20
2018-11-12T07:42:20.813Z,11.20
2018-11-12T07:44:25.317Z,11.20
2018-11-12T07:46:29.993Z,11.20
2018-11-12T07:48:34.617Z,11.20
2018-11-12T07:50:39.267Z,11.20
2018-11-12T07:52:45.159Z,11.20
2018-11-12T07:54:53.758Z,11.20
2018-11-12T07:56:58.280Z,11.20
2018-11-12T07:59:02.975Z,11.20
2018-11-12T08:01:07.807Z,11.20
2018-11-12T08:03:12.782Z,11.20
2018-11-12T08:05:17.658Z,11.20
2018-11-12T08:07:22.193Z,11.20
2018-11-12T08:09:26.710Z,11.20
2018-11-12T08:11:31.292Z,11.20
2018-11-12T08:13:35.785Z,11.20
2018-11-12T08:15:40.375Z,11.20
2018-11-12T08:17:45.005Z,11.20
2018-11-12T08:19:49.148Z,11.30
2018-11-12T08:21:53.878Z,11.30
2018-11-12T08:23:58.369Z,11.30
2018-11-12T08:26:02.913Z,11.20
2018-11-12T08:28:07.429Z,11.30
2018-11-12T08:30:14.524Z,11.30
2018-11-12T08:32:19.016Z,11.40
2018-11-12T08:34:23.760Z,11.40
2018-11-12T08:36:28.265Z,11.40
2018-11-12T08:38:32.547Z,11.50
2018-11-12T08:40:37.124Z,11.50
2018-11-12T08:42:42.189Z,11.40
2018-11-12T08:44:46.659Z,11.40
2018-11-12T08:46:51.291Z,11.40
2018-11-12T08:48:55.921Z,11.40
2018-11-12T08:51:00.621Z,11.50
2018-11-12T08:53:05.557Z,11.50
2018-11-12T08:55:12.246Z,11.40
2018-11-12T08:57:16.933Z,11.40
2018-11-12T08:59:21.684Z,11.50
2018-11-12T09:01:26.182Z,11.50
2018-11-12T09:03:30.715Z,11.60
2018-11-12T09:05:34.884Z,11.60
2018-11-12T09:07:39.973Z,11.50
2018-11-12T09:09:44.533Z,11.50
2018-11-12T09:11:49.092Z,11.50
2018-11-12T09:13:53.481Z,11.50
2018-11-12T09:15:57.934Z,11.50
2018-11-12T09:18:02.897Z,11.50
2018-11-12T09:20:07.970Z,11.50
2018-11-12T09:22:12.299Z,11.50
2018-11-12T09:24:16.931Z,11.50
2018-11-12T09:26:21.431Z,11.50
2018-11-12T09:28:36.795Z,11.50
2018-11-12T09:30:48.289Z,11.50
2018-11-12T09:32:51.699Z,11.50
2018-11-12T09:34:56.209Z,11.60
2018-11-12T09:37:00.752Z,11.50
2018-11-12T09:39:06.534Z,11.50
2018-11-12T09:41:10.813Z,11.50
2018-11-12T09:43:15.261Z,11.50
2018-11-12T09:45:19.716Z,11.50
2018-11-12T09:47:24.163Z,11.50
2018-11-12T09:49:28.590Z,11.50
2018-11-12T09:51:33.127Z,11.50
2018-11-12T09:53:37.536Z,11.50
2018-11-12T09:55:42.086Z,11.50
2018-11-12T09:57:47.929Z,11.50
2018-11-12T09:59:52.489Z,11.60
2018-11-12T10:01:57.620Z,11.60
2018-11-12T10:04:02.379Z,11.60
2018-11-12T10:06:08.775Z,11.70
2018-11-12T10:08:14.271Z,11.70
2018-11-12T10:10:26.204Z,11.70
2018-11-12T10:12:30.083Z,11.70
2018-11-12T10:14:33.989Z,11.70
2018-11-12T10:16:40.263Z,11.70
2018-11-12T10:18:41.704Z,11.70
2018-11-12T10:20:46.274Z,11.70
2018-11-12T10:22:50.930Z,11.70
2018-11-12T10:24:55.418Z,11.70
2018-11-12T10:26:59.839Z,11.80
2018-11-12T10:29:04.462Z,11.80
2018-11-12T10:31:09.061Z,11.80
2018-11-12T10:33:13.423Z,11.90
2018-11-12T10:35:17.712Z,12.00
2018-11-12T10:37:22.006Z,12.00
2018-11-12T10:39:26.347Z,12.10
2018-11-12T10:41:30.746Z,12.00
2018-11-12T10:43:35.175Z,12.10
2018-11-12T10:45:39.700Z,12.10
2018-11-12T10:47:44.484Z,12.10
2018-11-12T10:49:48.947Z,12.00
2018-11-12T10:51:53.305Z,12.00
2018-11-12T10:53:57.767Z,12.00
2018-11-12T10:56:02.039Z,12.10
2018-11-12T10:58:06.544Z,12.20
2018-11-12T11:00:22.512Z,12.20
2018-11-12T11:02:32.088Z,12.20
2018-11-12T11:04:36.464Z,12.30
2018-11-12T11:06:40.840Z,12.40
2018-11-12T11:08:45.275Z,12.50
2018-11-12T11:10:49.600Z,12.50
2018-11-12T11:12:54.187Z,12.70
2018-11-12T11:14:58.633Z,12.70
2018-11-12T11:17:02.951Z,12.70
2018-11-12T11:19:07.626Z,12.80
2018-11-12T11:21:12.166Z,12.80
2018-11-12T11:23:16.684Z,12.90
2018-11-12T11:25:21.140Z,12.90
2018-11-12T11:27:25.777Z,12.90
2018-11-12T11:29:30.011Z,12.70
2018-11-12T11:31:34.585Z,12.70
2018-11-12T11:33:39.084Z,12.70
2018-11-12T11:35:43.492Z,12.70
2018-11-12T11:37:47.868Z,12.60
2018-11-12T11:39:54.845Z,12.60
2018-11-12T11:41:59.227Z,12.60
2018-11-12T11:44:03.533Z,12.50
2018-11-12T11:46:07.861Z,12.50
2018-11-12T11:48:12.242Z,12.50
2018-11-12T11:50:18.189Z,12.50
2018-11-12T11:52:22.329Z,12.40
2018-11-12T11:54:26.725Z,12.50
2018-11-12T11:56:31.275Z,12.50
2018-11-12T11:58:35.695Z,12.40
2018-11-12T12:00:40.081Z,12.40
2018-11-12T12:02:45.163Z,12.40
2018-11-12T12:04:49.457Z,12.30
2018-11-12T12:06:53.831Z,12.30
2018-11-12T12:08:58.354Z,12.40
2018-11-12T12:11:02.815Z,12.40
2018-11-12T12:13:07.004Z,12.40
2018-11-12T12:15:12.951Z,12.40
2018-11-12T12:17:17.245Z,12.40
2018-11-12T12:19:21.711Z,12.30
2018-11-12T12:21:26.129Z,12.30
2018-11-12T12:23:30.329Z,12.30
2018-11-12T12:25:34.767Z,12.30
2018-11-12T12:27:39.528Z,12.30
2018-11-12T12:29:44.328Z,12.30
2018-11-12T12:31:49.358Z,12.30
2018-11-12T12:33:53.634Z,12.30
2018-11-12T12:35:58.188Z,12.30
2018-11-12T12:38:02.683Z,12.30
2018-11-12T12:40:08.625Z,12.20
2018-11-12T12:42:12.912Z,12.20
2018-11-12T12:44:17.435Z,12.20
2018-11-12T12:46:22.009Z,12.10
2018-11-12T12:48:26.328Z,12.20
2018-11-12T12:50:30.733Z,12.10
2018-11-12T12:52:35.839Z,12.10
2018-11-12T12:54:41.225Z,12.10
2018-11-12T12:56:46.969Z,12.10
2018-11-12T12:58:51.353Z,12.00
2018-11-12T13:00:55.601Z,11.90
2018-11-12T13:02:59.914Z,12.00
2018-11-12T13:05:04.370Z,12.00
2018-11-12T13:07:08.818Z,12.00
2018-11-12T13:09:13.137Z,12.00
2018-11-12T13:11:17.360Z,12.00
2018-11-12T13:13:21.966Z,11.90
2018-11-12T13:15:26.354Z,11.90
2018-11-12T13:17:30.811Z,12.00
2018-11-12T13:19:35.074Z,12.00
2018-11-12T13:21:39.558Z,12.10
2018-11-12T13:23:43.954Z,12.00
2018-11-12T13:25:48.469Z,12.00
2018-11-12T13:27:53.129Z,12.00
2018-11-12T13:29:57.712Z,12.00
2018-11-12T13:32:02.946Z,12.00
2018-11-12T13:34:07.275Z,12.00
2018-11-12T13:36:12.044Z,12.00
2018-11-12T13:38:16.323Z,12.00
2018-11-12T13:40:21.913Z,12.00
2018-11-12T13:42:26.545Z,12.00
2018-11-12T13:44:31.099Z,12.10
2018-11-12T13:46:40.898Z,12.10
2018-11-12T13:48:45.501Z,12.00
2018-11-12T13:50:49.837Z,12.00
2018-11-12T13:52:54.707Z,12.00
2018-11-12T13:54:59.283Z,12.10
2018-11-12T13:57:04.975Z,12.00
2018-11-12T13:59:09.348Z,12.00
2018-11-12T14:01:13.516Z,12.00
2018-11-12T14:03:17.715Z,12.00
2018-11-12T14:05:22.672Z,12.00
2018-11-12T14:07:27.196Z,12.00
2018-11-12T14:09:31.790Z,12.00
2018-11-12T14:11:36.187Z,12.00
2018-11-12T14:13:40.879Z,12.10
2018-11-12T14:15:45.136Z,12.00
2018-11-12T14:17:50.520Z,12.00
2018-11-12T14:20:03.567Z,12.00
2018-11-12T14:22:08.683Z,12.00
2018-11-12T14:24:13.135Z,11.90
2018-11-12T14:26:17.857Z,11.90
2018-11-12T14:28:22.251Z,11.90
2018-11-12T14:30:27.830Z,12.00
2018-11-12T14:32:34.341Z,11.90
2018-11-12T14:34:39.230Z,12.00
2018-11-12T14:36:43.633Z,12.00
2018-11-12T14:38:49.042Z,12.00
2018-11-12T14:40:53.555Z,12.00
2018-11-12T14:42:59.508Z,12.00
2018-11-12T14:45:03.967Z,11.90
2018-11-12T14:47:09.213Z,11.90
2018-11-12T14:49:13.697Z,11.90
2018-11-12T14:51:23.415Z,11.90
2018-11-12T14:53:28.351Z,11.90
2018-11-12T14:55:32.806Z,12.00
2018-11-12T14:57:37.213Z,11.90
2018-11-12T14:59:41.653Z,12.00
2018-11-12T15:01:45.990Z,12.00
2018-11-12T15:03:50.431Z,11.90
2018-11-12T15:05:55.900Z,11.90
2018-11-12T15:08:00.382Z,11.90
2018-11-12T15:10:05.678Z,11.90
2018-11-12T15:12:13.804Z,11.90
2018-11-12T15:14:18.248Z,11.90
2018-11-12T15:16:22.702Z,11.90
2018-11-12T15:18:27.261Z,11.90
2018-11-12T15:20:31.670Z,11.90
2018-11-12T15:22:36.984Z,11.90
2018-11-12T15:24:41.414Z,11.90
2018-11-12T15:26:45.715Z,11.80
2018-11-12T15:28:50.226Z,11.80
2018-11-12T15:30:54.995Z,11.80
2018-11-12T15:32:59.240Z,11.80
2018-11-12T15:35:03.808Z,11.80
2018-11-12T15:37:08.980Z,11.80
2018-11-12T15:39:13.121Z,11.80
2018-11-12T15:41:17.615Z,11.80
2018-11-12T15:43:21.973Z,11.80
2018-11-12T15:45:26.395Z,11.80
2018-11-12T15:47:31.013Z,11.80
2018-11-12T15:49:35.329Z,11.70
2018-11-12T15:51:39.736Z,11.70
2018-11-12T15:53:44.072Z,11.70
2018-11-12T15:55:48.467Z,11.70
2018-11-12T15:57:53.023Z,11.70
2018-11-12T15:59:57.509Z,11.70
2018-11-12T16:02:01.926Z,11.60
2018-11-12T16:04:06.584Z,11.70
2018-11-12T16:06:11.277Z,11.60
2018-11-12T16:08:15.538Z,11.60
2018-11-12T16:10:20.914Z,11.70
2018-11-12T16:12:25.742Z,11.60
2018-11-12T16:14:30.029Z,11.60
2018-11-12T16:16:34.580Z,11.60
2018-11-12T16:18:38.913Z,11.60
2018-11-12T16:20:43.413Z,11.60
2018-11-12T16:22:48.421Z,11.60
2018-11-12T16:24:52.993Z,11.60
2018-11-12T16:26:57.224Z,11.60
2018-11-12T16:29:01.847Z,11.60
2018-11-12T16:31:06.651Z,11.60
2018-11-12T16:33:10.826Z,11.60
2018-11-12T16:35:18.763Z,11.60
2018-11-12T16:37:23.179Z,11.60
2018-11-12T16:39:27.599Z,11.60
2018-11-12T16:41:31.990Z,11.60
2018-11-12T16:43:36.324Z,11.60
2018-11-12T16:45:41.665Z,11.60
2018-11-12T16:47:46.159Z,11.50
2018-11-12T16:49:50.703Z,11.50
2018-11-12T16:51:55.074Z,11.60
2018-11-12T16:53:59.642Z,11.60
2018-11-12T16:56:03.967Z,11.60
2018-11-12T16:58:08.289Z,11.60
2018-11-12T17:00:14.210Z,11.60
2018-11-12T17:02:19.586Z,11.50
2018-11-12T17:04:23.933Z,11.60
2018-11-12T17:06:28.289Z,11.60
2018-11-12T17:08:32.619Z,11.60
2018-11-12T17:10:37.113Z,11.60
2018-11-12T17:12:42.361Z,11.50
2018-11-12T17:14:47.046Z,11.50
2018-11-12T17:16:51.646Z,11.50
2018-11-12T17:18:55.983Z,11.60
2018-11-12T17:21:00.260Z,11.60
2018-11-12T17:23:04.693Z,11.60
2018-11-12T17:25:10.266Z,11.60
2018-11-12T17:27:14.513Z,11.50
2018-11-12T17:29:18.996Z,11.50
2018-11-12T17:31:23.367Z,11.50
2018-11-12T17:33:27.669Z,11.50
2018-11-12T17:35:31.984Z,11.50
2018-11-12T17:37:36.458Z,11.50
2018-11-12T17:39:44.101Z,11.50
2018-11-12T17:41:48.590Z,11.50
2018-11-12T17:43:53.221Z,11.40
2018-11-12T17:45:57.494Z,11.40
2018-11-12T17:48:02.039Z,11.40
2018-11-12T17:50:07.374Z,11.40
2018-11-12T17:52:11.912Z,11.40
2018-11-12T17:54:17.159Z,11.50
2018-11-12T17:56:21.681Z,11.40
2018-11-12T17:58:26.154Z,11.40
2018-11-12T18:00:33.687Z,11.50
2018-11-12T18:02:38.005Z,11.40
2018-11-12T18:04:42.497Z,11.40
2018-11-12T18:06:46.843Z,11.40
2018-11-12T18:08:51.340Z,11.40
2018-11-12T18:10:55.989Z,11.40
2018-11-12T18:13:00.493Z,11.40
2018-11-12T18:15:05.318Z,11.40
2018-11-12T18:17:09.764Z,11.40
2018-11-12T18:19:14.331Z,11.40
2018-11-12T18:21:18.959Z,11.40
2018-11-12T18:23:23.389Z,11.40
2018-11-12T18:25:27.739Z,11.40
2018-11-12T18:27:32.022Z,11.40
2018-11-12T18:29:37.581Z,11.40
2018-11-12T18:31:42.026Z,11.30
2018-11-12T18:33:46.331Z,11.30
2018-11-12T18:35:50.765Z,11.30
2018-11-12T18:37:55.250Z,11.30
2018-11-12T18:39:59.655Z,11.30
2018-11-12T18:42:04.119Z,11.30
2018-11-12T18:44:12.669Z,11.20
2018-11-12T18:46:17.018Z,11.20
2018-11-12T18:48:22.541Z,11.20
2018-11-12T18:50:28.480Z,11.20
2018-11-12T18:52:33.139Z,11.20
2018-11-12T18:54:38.023Z,11.20
2018-11-12T18:56:42.491Z,11.20
2018-11-12T18:58:48.028Z,11.10
2018-11-12T19:00:52.595Z,11.10
2018-11-12T19:02:57.105Z,11.10
2018-11-12T19:05:01.733Z,11.00
2018-11-12T19:07:06.438Z,11.00
2018-11-12T19:09:11.613Z,11.00
2018-11-12T19:11:16.021Z,11.00
2018-11-12T19:13:20.263Z,11.00
2018-11-12T19:15:25.929Z,11.00
2018-11-12T19:17:30.241Z,11.00
2018-11-12T19:19:34.736Z,10.90
2018-11-12T19:21:39.222Z,10.90
2018-11-12T19:23:43.586Z,10.90
2018-11-12T19:25:47.963Z,10.90
2018-11-12T19:27:52.298Z,11.00
2018-11-12T19:29:57.256Z,10.90
2018-11-12T19:32:01.564Z,10.90
2018-11-12T19:34:06.070Z,10.90
2018-11-12T19:36:10.407Z,10.90
2018-11-12T19:38:15.065Z,10.90
2018-11-12T19:40:20.930Z,10.90
2018-11-12T19:42:25.397Z,10.80
2018-11-12T19:44:31.640Z,10.90
2018-11-12T19:46:36.892Z,10.90
2018-11-12T19:48:41.322Z,10.90
2018-11-12T19:50:45.920Z,10.80
2018-11-12T19:52:51.356Z,10.80
2018-11-12T19:54:55.774Z,10.80
2018-11-12T19:57:00.579Z,10.70
2018-11-12T19:59:05.284Z,10.80
2018-11-12T20:01:09.631Z,10.70
2018-11-12T20:03:14.339Z,10.80
2018-11-12T20:05:19.278Z,10.70
2018-11-12T20:07:23.734Z,10.80
2018-11-12T20:09:28.274Z,10.80
2018-11-12T20:11:32.635Z,10.70
2018-11-12T20:13:37.087Z,10.80
2018-11-12T20:15:41.536Z,10.80
2018-11-12T20:17:47.009Z,10.70
2018-11-12T20:19:51.322Z,10.70
2018-11-12T20:21:55.831Z,10.70
2018-11-12T20:24:00.491Z,10.70
2018-11-12T20:26:05.421Z,10.70
2018-11-12T20:28:09.852Z,10.70
2018-11-12T20:30:24.321Z,10.70
2018-11-12T20:32:28.944Z,10.70
2018-11-12T20:34:33.525Z,10.70
2018-11-12T20:36:38.154Z,10.70
2018-11-12T20:38:42.853Z,10.70
2018-11-12T20:40:47.177Z,10.60
2018-11-12T20:42:51.551Z,10.60
2018-11-12T20:44:56.150Z,10.70
2018-11-12T20:47:00.506Z,10.60
2018-11-12T20:49:05.059Z,10.60
2018-11-12T20:51:09.412Z,10.60
2018-11-12T20:53:13.706Z,10.60
2018-11-12T20:55:18.706Z,10.60
2018-11-12T20:57:22.909Z,10.60
2018-11-12T20:59:27.329Z,10.60
2018-11-12T21:01:31.777Z,10.50
2018-11-12T21:03:36.100Z,10.50
2018-11-12T21:05:40.488Z,10.50
2018-11-12T21:07:46.147Z,10.50
2018-11-12T21:09:50.512Z,10.50
2018-11-12T21:11:54.980Z,10.40
2018-11-12T21:14:00.623Z,10.40
2018-11-12T21:16:05.437Z,10.30
2018-11-12T21:18:09.950Z,10.30
2018-11-12T21:20:19.999Z,10.30
2018-11-12T21:22:24.343Z,10.30
2018-11-12T21:24:28.802Z,10.30
2018-11-12T21:26:33.213Z,10.30
2018-11-12T21:28:37.337Z,10.30
2018-11-12T21:30:41.888Z,10.30
2018-11-12T21:32:46.509Z,10.30
2018-11-12T21:34:50.698Z,10.30
2018-11-12T21:36:54.950Z,10.30
2018-11-12T21:38:59.264Z,10.30
2018-11-12T21:41:03.556Z,10.30
2018-11-12T21:43:07.880Z,10.30
2018-11-12T21:45:13.692Z,10.20
2018-11-12T21:47:18.077Z,10.30
2018-11-12T21:49:22.459Z,10.20
2018-11-12T21:51:26.892Z,10.30
2018-11-12T21:53:31.204Z,10.20
2018-11-12T21:55:35.775Z,10.20
2018-11-12T21:57:40.604Z,10.20
2018-11-12T21:59:45.301Z,10.20
2018-11-12T22:01:49.683Z,10.20
2018-11-12T22:03:53.894Z,10.20
2018-11-12T22:05:58.222Z,10.20
2018-11-12T22:08:03.402Z,10.20
2018-11-12T22:10:09.689Z,10.10
2018-11-12T22:12:14.187Z,10.10
2018-11-12T22:14:18.766Z,10.10
2018-11-12T22:16:23.059Z,10.10
2018-11-12T22:18:27.370Z,10.10
2018-11-12T22:20:31.768Z,10.10
2018-11-12T22:22:36.221Z,10.10
2018-11-12T22:24:40.479Z,10.10
2018-11-12T22:26:44.843Z,10.00
2018-11-12T22:28:49.043Z,10.00
2018-11-12T22:30:53.453Z,10.10
2018-11-12T22:32:57.796Z,10.10
2018-11-12T22:35:02.052Z,10.00
2018-11-12T22:37:06.521Z,10.00
2018-11-12T22:39:11.628Z,10.10
2018-11-12T22:41:16.125Z,10.00
2018-11-12T22:43:20.466Z,10.10
2018-11-12T22:45:25.566Z,10.00
2018-11-12T22:47:30.045Z,10.00
2018-11-12T22:49:34.337Z,10.00
2018-11-12T22:51:38.474Z,10.00
2018-11-12T22:53:42.854Z,10.00
2018-11-12T22:55:47.267Z,10.00
2018-11-12T22:57:51.822Z,10.00
2018-11-12T22:59:56.245Z,10.00
2018-11-12T23:02:00.736Z,10.00
2018-11-12T23:04:04.945Z,10.00
2018-11-12T23:06:11.807Z,10.00
2018-11-12T23:08:16.259Z,10.00
2018-11-12T23:10:20.785Z,10.00
2018-11-12T23:12:25.184Z,10.00
2018-11-12T23:14:29.319Z,9.90
2018-11-12T23:16:33.530Z,9.90
2018-11-12T23:18:38.125Z,9.90
2018-11-12T23:20:42.426Z,9.90
2018-11-12T23:22:47.460Z,9.90
2018-11-12T23:24:51.811Z,9.90
2018-11-12T23:26:56.213Z,9.90
2018-11-12T23:29:00.724Z,9.90
2018-11-12T23:31:05.249Z,9.90
2018-11-12T23:33:09.325Z,9.90
2018-11-12T23:35:15.772Z,9.90
2018-11-12T23:37:20.137Z,9.90
2018-11-12T23:39:24.537Z,9.90
2018-11-12T23:41:28.867Z,9.90
2018-11-12T23:43:33.092Z,10.00
2018-11-12T23:45:37.375Z,10.00
2018-11-12T23:47:41.646Z,10.00
2018-11-12T23:49:46.015Z,10.00
2018-11-12T23:51:50.342Z,10.00
2018-11-12T23:53:54.577Z,10.00
2018-11-12T23:55:58.729Z,10.00
2018-11-12T23:58:03.182Z,10.00
